sensor_id;sensor_type;location;lat;lon;timestamp;pressure;altitude;pressure_sealevel;temperature;humidity
4167;BME280;2097;51.104;7.150;2023-03-22T00:02:01;98411.31;;;9.52;100.00
4167;BME280;2097;51.104;7.150;2023-03-22T00:04:30;98418.25;;;9.52;100.00
4167;BME280;2097;51.104;7.150;2023-03-22T00:06:57;98409.66;;;9.51;100.00
4167;BME280;2097;51.104;7.150;2023-03-22T00:09:23;98411.41;;;9.51;100.00
4167;BME280;2097;51.104;7.150;2023-03-22T00:11:50;98406.22;;;9.51;100.00
4167;BME280;2097;51.104;7.150;2023-03-22T00:14:17;98403.72;;;9.49;100.00
4167;BME280;2097;51.104;7.150;2023-03-22T00:16:44;98399.38;;;9.50;100.00
4167;BME280;2097;51.104;7.150;2023-03-22T00:19:13;98399.38;;;9.50;100.00
4167;BME280;2097;51.104;7.150;2023-03-22T00:21:41;98401.03;;;9.51;100.00
4167;BME280;2097;51.104;7.150;2023-03-22T00:24:08;98400.22;;;9.50;100.00
4167;BME280;2097;51.104;7.150;2023-03-22T00:26:35;98395.03;;;9.50;100.00
4167;BME280;2097;51.104;7.150;2023-03-22T00:29:02;98391.72;;;9.48;100.00
4167;BME280;2097;51.104;7.150;2023-03-22T00:31:29;98384.97;;;9.46;100.00
4167;BME280;2097;51.104;7.150;2023-03-22T00:33:56;98385.03;;;9.44;100.00
4167;BME280;2097;51.104;7.150;2023-03-22T00:36:22;98381.63;;;9.44;100.00
4167;BME280;2097;51.104;7.150;2023-03-22T00:38:51;98380.88;;;9.42;100.00
4167;BME280;2097;51.104;7.150;2023-03-22T00:41:19;98372.38;;;9.40;100.00
4167;BME280;2097;51.104;7.150;2023-03-22T00:43:48;98369.88;;;9.38;100.00
4167;BME280;2097;51.104;7.150;2023-03-22T00:46:17;98368.19;;;9.37;100.00
4167;BME280;2097;51.104;7.150;2023-03-22T00:48:45;98370.03;;;9.35;100.00
4167;BME280;2097;51.104;7.150;2023-03-22T00:51:12;98363.94;;;9.36;100.00
4167;BME280;2097;51.104;7.150;2023-03-22T00:53:40;98364.88;;;9.35;100.00
4167;BME280;2097;51.104;7.150;2023-03-22T00:56:10;98352.03;;;9.34;100.00
4167;BME280;2097;51.104;7.150;2023-03-22T00:58:39;98354.69;;;9.32;100.00
4167;BME280;2097;51.104;7.150;2023-03-22T01:01:06;98349.69;;;9.29;100.00
4167;BME280;2097;51.104;7.150;2023-03-22T01:03:33;98344.91;;;9.23;100.00
4167;BME280;2097;51.104;7.150;2023-03-22T01:06:00;98344.22;;;9.20;100.00
4167;BME280;2097;51.104;7.150;2023-03-22T01:08:27;98334.06;;;9.17;100.00
4167;BME280;2097;51.104;7.150;2023-03-22T01:10:57;98205.25;;;8.37;100.00
4167;BME280;2097;51.104;7.150;2023-03-22T01:13:26;98334.97;;;9.16;100.00
4167;BME280;2097;51.104;7.150;2023-03-22T01:15:53;98329.91;;;9.14;100.00
4167;BME280;2097;51.104;7.150;2023-03-22T01:18:20;98324.91;;;9.11;100.00
4167;BME280;2097;51.104;7.150;2023-03-22T01:20:46;98323.34;;;9.09;100.00
4167;BME280;2097;51.104;7.150;2023-03-22T01:23:13;98329.63;;;9.05;100.00
4167;BME280;2097;51.104;7.150;2023-03-22T01:25:40;98329.81;;;9.02;100.00
4167;BME280;2097;51.104;7.150;2023-03-22T01:28:07;98321.81;;;8.91;100.00
4167;BME280;2097;51.104;7.150;2023-03-22T01:30:37;98323.59;;;8.91;100.00
4167;BME280;2097;51.104;7.150;2023-03-22T01:33:04;98327.28;;;8.87;100.00
4167;BME280;2097;51.104;7.150;2023-03-22T01:35:32;98321.59;;;8.80;100.00
4167;BME280;2097;51.104;7.150;2023-03-22T01:37:58;98328.78;;;8.75;100.00
4167;BME280;2097;51.104;7.150;2023-03-22T01:40:26;98306.41;;;8.60;100.00
4167;BME280;2097;51.104;7.150;2023-03-22T01:42:53;98314.00;;;8.63;100.00
4167;BME280;2097;51.104;7.150;2023-03-22T01:45:35;98314.94;;;8.62;100.00
4167;BME280;2097;51.104;7.150;2023-03-22T01:48:06;98316.84;;;8.59;100.00
4167;BME280;2097;51.104;7.150;2023-03-22T01:50:35;98313.44;;;8.58;100.00
4167;BME280;2097;51.104;7.150;2023-03-22T01:53:04;98310.84;;;8.58;100.00
4167;BME280;2097;51.104;7.150;2023-03-22T01:55:33;98298.56;;;8.62;100.00
4167;BME280;2097;51.104;7.150;2023-03-22T01:58:02;98299.25;;;8.65;100.00
4167;BME280;2097;51.104;7.150;2023-03-22T02:00:29;98293.78;;;8.70;100.00
4167;BME280;2097;51.104;7.150;2023-03-22T02:02:58;98287.69;;;8.71;100.00
4167;BME280;2097;51.104;7.150;2023-03-22T02:05:25;98196.38;;;8.11;100.00
4167;BME280;2097;51.104;7.150;2023-03-22T02:07:52;98283.03;;;8.62;100.00
4167;BME280;2097;51.104;7.150;2023-03-22T02:10:23;98279.34;;;8.52;100.00
4167;BME280;2097;51.104;7.150;2023-03-22T02:13:06;98283.84;;;8.48;100.00
4167;BME280;2097;51.104;7.150;2023-03-22T02:15:39;98277.94;;;8.46;100.00
4167;BME280;2097;51.104;7.150;2023-03-22T02:18:18;98271.09;;;8.45;100.00
4167;BME280;2097;51.104;7.150;2023-03-22T02:21:23;98201.25;;;8.02;100.00
4167;BME280;2097;51.104;7.150;2023-03-22T02:24:39;98269.59;;;8.41;100.00
4167;BME280;2097;51.104;7.150;2023-03-22T02:30:30;98259.75;;;8.48;100.00
4167;BME280;2097;51.104;7.150;2023-03-22T02:33:13;98257.06;;;8.49;100.00
4167;BME280;2097;51.104;7.150;2023-03-22T02:35:54;98252.91;;;8.47;100.00
4167;BME280;2097;51.104;7.150;2023-03-22T02:38:49;98249.59;;;8.45;100.00
4167;BME280;2097;51.104;7.150;2023-03-22T02:41:26;98261.09;;;8.39;100.00
4167;BME280;2097;51.104;7.150;2023-03-22T02:44:04;98253.34;;;8.39;100.00
4167;BME280;2097;51.104;7.150;2023-03-22T02:46:39;98252.53;;;8.39;100.00
4167;BME280;2097;51.104;7.150;2023-03-22T02:49:15;98250.13;;;8.36;100.00
4167;BME280;2097;51.104;7.150;2023-03-22T02:51:46;98251.13;;;8.33;100.00
4167;BME280;2097;51.104;7.150;2023-03-22T02:54:20;98247.81;;;8.31;100.00
4167;BME280;2097;51.104;7.150;2023-03-22T02:56:52;98243.63;;;8.29;100.00
4167;BME280;2097;51.104;7.150;2023-03-22T02:59:22;98243.91;;;8.24;100.00
4167;BME280;2097;51.104;7.150;2023-03-22T03:01:53;98234.75;;;8.19;100.00
4167;BME280;2097;51.104;7.150;2023-03-22T03:04:27;98234.91;;;8.16;100.00
4167;BME280;2097;51.104;7.150;2023-03-22T03:06:57;98231.06;;;8.07;100.00
4167;BME280;2097;51.104;7.150;2023-03-22T03:09:28;98226.97;;;8.03;100.00
4167;BME280;2097;51.104;7.150;2023-03-22T03:11:55;98223.84;;;7.98;100.00
4167;BME280;2097;51.104;7.150;2023-03-22T03:14:23;98227.34;;;7.97;100.00
4167;BME280;2097;51.104;7.150;2023-03-22T03:17:04;98221.44;;;7.95;100.00
4167;BME280;2097;51.104;7.150;2023-03-22T03:19:35;98207.69;;;7.80;100.00
4167;BME280;2097;51.104;7.150;2023-03-22T03:22:12;98211.00;;;7.97;100.00
4167;BME280;2097;51.104;7.150;2023-03-22T03:24:48;97468.97;;;3.44;100.00
4167;BME280;2097;51.104;7.150;2023-03-22T03:27:20;98222.19;;;7.97;100.00
4167;BME280;2097;51.104;7.150;2023-03-22T03:29:53;98218.84;;;7.95;100.00
4167;BME280;2097;51.104;7.150;2023-03-22T03:32:22;98214.59;;;7.94;100.00
4167;BME280;2097;51.104;7.150;2023-03-22T03:34:55;98214.03;;;7.89;100.00
4167;BME280;2097;51.104;7.150;2023-03-22T03:37:26;98215.00;;;7.87;100.00
4167;BME280;2097;51.104;7.150;2023-03-22T03:39:59;98212.34;;;7.88;100.00
4167;BME280;2097;51.104;7.150;2023-03-22T03:42:30;98205.53;;;7.88;100.00
4167;BME280;2097;51.104;7.150;2023-03-22T03:44:58;98204.63;;;7.88;100.00
4167;BME280;2097;51.104;7.150;2023-03-22T03:47:27;98203.13;;;7.85;100.00
4167;BME280;2097;51.104;7.150;2023-03-22T03:49:54;98198.88;;;7.84;100.00
4167;BME280;2097;51.104;7.150;2023-03-22T03:52:22;98191.28;;;7.81;100.00
4167;BME280;2097;51.104;7.150;2023-03-22T03:54:50;98192.31;;;7.78;100.00
4167;BME280;2097;51.104;7.150;2023-03-22T03:57:19;98193.22;;;7.77;100.00
4167;BME280;2097;51.104;7.150;2023-03-22T03:59:46;98194.47;;;7.70;100.00
4167;BME280;2097;51.104;7.150;2023-03-22T04:02:13;98199.53;;;7.72;100.00
4167;BME280;2097;51.104;7.150;2023-03-22T04:04:41;98201.38;;;7.70;100.00
4167;BME280;2097;51.104;7.150;2023-03-22T04:07:07;98205.63;;;7.71;100.00
4167;BME280;2097;51.104;7.150;2023-03-22T04:09:37;98194.38;;;7.72;100.00
4167;BME280;2097;51.104;7.150;2023-03-22T04:12:05;98202.28;;;7.84;100.00
4167;BME280;2097;51.104;7.150;2023-03-22T04:14:35;98208.84;;;7.89;100.00
4167;BME280;2097;51.104;7.150;2023-03-22T04:17:02;98209.09;;;7.85;100.00
4167;BME280;2097;51.104;7.150;2023-03-22T04:19:32;98211.03;;;7.82;100.00
4167;BME280;2097;51.104;7.150;2023-03-22T04:21:59;98207.69;;;7.80;100.00
4167;BME280;2097;51.104;7.150;2023-03-22T04:24:26;98213.88;;;7.77;100.00
4167;BME280;2097;51.104;7.150;2023-03-22T04:26:53;98214.13;;;7.73;100.00
4167;BME280;2097;51.104;7.150;2023-03-22T04:29:19;98210.78;;;7.71;100.00
4167;BME280;2097;51.104;7.150;2023-03-22T04:31:48;98216.88;;;7.70;100.00
4167;BME280;2097;51.104;7.150;2023-03-22T04:34:17;98204.06;;;7.68;100.00
4167;BME280;2097;51.104;7.150;2023-03-22T04:36:44;98209.41;;;7.65;100.00
4167;BME280;2097;51.104;7.150;2023-03-22T04:39:11;98206.22;;;7.60;100.00
4167;BME280;2097;51.104;7.150;2023-03-22T04:41:38;98208.91;;;7.59;100.00
4167;BME280;2097;51.104;7.150;2023-03-22T04:44:05;98200.09;;;7.63;100.00
4167;BME280;2097;51.104;7.150;2023-03-22T04:46:34;98205.78;;;7.68;100.00
4167;BME280;2097;51.104;7.150;2023-03-22T04:49:03;98197.53;;;7.77;100.00
4167;BME280;2097;51.104;7.150;2023-03-22T04:51:30;98202.03;;;7.88;100.00
4167;BME280;2097;51.104;7.150;2023-03-22T04:53:57;98198.19;;;7.95;100.00
4167;BME280;2097;51.104;7.150;2023-03-22T04:56:24;98188.66;;;7.96;100.00
4167;BME280;2097;51.104;7.150;2023-03-22T04:58:51;98188.94;;;7.91;100.00
4167;BME280;2097;51.104;7.150;2023-03-22T05:01:18;98181.59;;;7.84;100.00
4167;BME280;2097;51.104;7.150;2023-03-22T05:03:45;98179.41;;;7.78;100.00
4167;BME280;2097;51.104;7.150;2023-03-22T05:06:13;98183.31;;;7.70;100.00
4167;BME280;2097;51.104;7.150;2023-03-22T05:08:41;98181.25;;;7.61;100.00
4167;BME280;2097;51.104;7.150;2023-03-22T05:11:10;98181.44;;;7.58;100.00
4167;BME280;2097;51.104;7.150;2023-03-22T05:13:37;98180.56;;;7.57;100.00
4167;BME280;2097;51.104;7.150;2023-03-22T05:16:05;98184.75;;;7.60;100.00
4167;BME280;2097;51.104;7.150;2023-03-22T05:18:32;98185.25;;;7.66;100.00
4167;BME280;2097;51.104;7.150;2023-03-22T05:21:00;98170.38;;;7.70;100.00
4167;BME280;2097;51.104;7.150;2023-03-22T05:23:32;98190.50;;;7.94;100.00
4167;BME280;2097;51.104;7.150;2023-03-22T05:25:59;98182.06;;;8.06;100.00
4167;BME280;2097;51.104;7.150;2023-03-22T05:28:28;98180.81;;;8.13;100.00
4167;BME280;2097;51.104;7.150;2023-03-22T05:30:56;98178.03;;;8.16;100.00
4167;BME280;2097;51.104;7.150;2023-03-22T05:33:23;98171.97;;;8.17;100.00
4167;BME280;2097;51.104;7.150;2023-03-22T05:35:50;98173.97;;;8.12;100.00
4167;BME280;2097;51.104;7.150;2023-03-22T05:38:16;98178.63;;;8.05;100.00
4167;BME280;2097;51.104;7.150;2023-03-22T05:40:44;98175.97;;;8.07;100.00
4167;BME280;2097;51.104;7.150;2023-03-22T05:43:11;98133.22;;;7.88;100.00
4167;BME280;2097;51.104;7.150;2023-03-22T05:45:38;98175.09;;;8.22;100.00
4167;BME280;2097;51.104;7.150;2023-03-22T05:48:05;98177.34;;;8.28;100.00
4167;BME280;2097;51.104;7.150;2023-03-22T05:50:33;98178.38;;;8.25;100.00
4167;BME280;2097;51.104;7.150;2023-03-22T05:53:00;98184.56;;;8.37;100.00
4167;BME280;2097;51.104;7.150;2023-03-22T05:55:27;98184.09;;;8.44;100.00
4167;BME280;2097;51.104;7.150;2023-03-22T05:57:57;98185.13;;;8.56;100.00
4167;BME280;2097;51.104;7.150;2023-03-22T06:00:27;98194.88;;;8.66;100.00
4167;BME280;2097;51.104;7.150;2023-03-22T06:02:57;98187.44;;;8.74;100.00
4167;BME280;2097;51.104;7.150;2023-03-22T06:05:28;98192.19;;;8.82;100.00
4167;BME280;2097;51.104;7.150;2023-03-22T06:07:55;98189.22;;;8.88;100.00
4167;BME280;2097;51.104;7.150;2023-03-22T06:10:22;98181.19;;;8.92;100.00
4167;BME280;2097;51.104;7.150;2023-03-22T06:12:51;98185.13;;;8.98;100.00
4167;BME280;2097;51.104;7.150;2023-03-22T06:15:19;98179.72;;;9.02;100.00
4167;BME280;2097;51.104;7.150;2023-03-22T06:17:46;98176.81;;;9.06;100.00
4167;BME280;2097;51.104;7.150;2023-03-22T06:20:14;98171.34;;;9.11;100.00
4167;BME280;2097;51.104;7.150;2023-03-22T06:22:40;98179.78;;;9.14;100.00
4167;BME280;2097;51.104;7.150;2023-03-22T06:25:09;98179.59;;;9.17;100.00
4167;BME280;2097;51.104;7.150;2023-03-22T06:27:36;98179.41;;;9.20;100.00
4167;BME280;2097;51.104;7.150;2023-03-22T06:30:03;98182.63;;;9.24;100.00
4167;BME280;2097;51.104;7.150;2023-03-22T06:32:32;98186.78;;;9.26;100.00
4167;BME280;2097;51.104;7.150;2023-03-22T06:34:59;98182.25;;;9.30;100.00
4167;BME280;2097;51.104;7.150;2023-03-22T06:37:25;98186.19;;;9.35;100.00
4167;BME280;2097;51.104;7.150;2023-03-22T06:39:52;98184.91;;;9.42;100.00
4167;BME280;2097;51.104;7.150;2023-03-22T06:42:19;98187.00;;;9.50;100.00
4167;BME280;2097;51.104;7.150;2023-03-22T06:44:45;98186.72;;;9.54;100.00
4167;BME280;2097;51.104;7.150;2023-03-22T06:47:12;98193.38;;;9.58;100.00
4167;BME280;2097;51.104;7.150;2023-03-22T06:49:41;98187.88;;;9.63;100.00
4167;BME280;2097;51.104;7.150;2023-03-22T06:52:08;98185.91;;;9.66;100.00
4167;BME280;2097;51.104;7.150;2023-03-22T06:54:35;98189.91;;;9.72;100.00
4167;BME280;2097;51.104;7.150;2023-03-22T06:57:01;98185.25;;;9.77;100.00
4167;BME280;2097;51.104;7.150;2023-03-22T06:59:28;98193.34;;;9.85;100.00
4167;BME280;2097;51.104;7.150;2023-03-22T07:01:55;98190.09;;;9.95;100.00
4167;BME280;2097;51.104;7.150;2023-03-22T07:04:22;98188.38;;;10.08;100.00
4167;BME280;2097;51.104;7.150;2023-03-22T07:06:51;98179.06;;;10.18;100.00
4167;BME280;2097;51.104;7.150;2023-03-22T07:09:18;98191.84;;;10.21;100.00
4167;BME280;2097;51.104;7.150;2023-03-22T07:11:46;98187.38;;;10.23;100.00
4167;BME280;2097;51.104;7.150;2023-03-22T07:14:13;98184.69;;;10.24;100.00
4167;BME280;2097;51.104;7.150;2023-03-22T07:16:40;98186.34;;;10.25;100.00
4167;BME280;2097;51.104;7.150;2023-03-22T07:19:07;98186.53;;;10.22;100.00
4167;BME280;2097;51.104;7.150;2023-03-22T07:21:34;98183.31;;;10.19;100.00
4167;BME280;2097;51.104;7.150;2023-03-22T07:24:02;98176.69;;;10.15;100.00
4167;BME280;2097;51.104;7.150;2023-03-22T07:26:31;98172.34;;;10.16;100.00
4167;BME280;2097;51.104;7.150;2023-03-22T07:28:58;98169.56;;;10.19;100.00
4167;BME280;2097;51.104;7.150;2023-03-22T07:31:25;98173.38;;;10.25;100.00
4167;BME280;2097;51.104;7.150;2023-03-22T07:33:51;98165.31;;;10.30;100.00
4167;BME280;2097;51.104;7.150;2023-03-22T07:36:18;98165.72;;;10.36;100.00
4167;BME280;2097;51.104;7.150;2023-03-22T07:38:48;98169.25;;;10.48;100.00
4167;BME280;2097;51.104;7.150;2023-03-22T07:41:17;98164.06;;;10.60;100.00
4167;BME280;2097;51.104;7.150;2023-03-22T07:43:44;98157.22;;;10.72;100.00
4167;BME280;2097;51.104;7.150;2023-03-22T07:46:12;98165.09;;;10.83;100.00
4167;BME280;2097;51.104;7.150;2023-03-22T07:48:38;98168.84;;;10.91;100.00
4167;BME280;2097;51.104;7.150;2023-03-22T07:51:06;98156.13;;;10.99;100.00
4167;BME280;2097;51.104;7.150;2023-03-22T07:53:33;98158.22;;;11.07;100.00
4167;BME280;2097;51.104;7.150;2023-03-22T07:56:01;98153.22;;;11.16;100.00
4167;BME280;2097;51.104;7.150;2023-03-22T07:58:29;98156.59;;;11.29;100.00
4167;BME280;2097;51.104;7.150;2023-03-22T08:00:56;98155.72;;;11.41;100.00
4167;BME280;2097;51.104;7.150;2023-03-22T08:03:24;98157.50;;;11.40;100.00
4167;BME280;2097;51.104;7.150;2023-03-22T08:05:51;98156.28;;;11.33;100.00
4167;BME280;2097;51.104;7.150;2023-03-22T08:08:18;98152.56;;;11.25;100.00
4167;BME280;2097;51.104;7.150;2023-03-22T08:10:47;98155.28;;;11.11;100.00
4167;BME280;2097;51.104;7.150;2023-03-22T08:13:15;98158.53;;;11.02;100.00
4167;BME280;2097;51.104;7.150;2023-03-22T08:15:43;98158.94;;;10.96;100.00
4167;BME280;2097;51.104;7.150;2023-03-22T08:18:10;98152.81;;;10.97;100.00
4167;BME280;2097;51.104;7.150;2023-03-22T08:20:37;98151.66;;;11.01;100.00
4167;BME280;2097;51.104;7.150;2023-03-22T08:23:03;98150.09;;;11.11;100.00
4167;BME280;2097;51.104;7.150;2023-03-22T08:25:32;98151.50;;;11.28;100.00
4167;BME280;2097;51.104;7.150;2023-03-22T08:27:59;98154.78;;;11.42;100.00
4167;BME280;2097;51.104;7.150;2023-03-22T08:30:26;98149.66;;;11.53;100.00
4167;BME280;2097;51.104;7.150;2023-03-22T08:32:54;98143.22;;;11.58;99.14
4167;BME280;2097;51.104;7.150;2023-03-22T08:35:21;98141.25;;;11.62;98.98
4167;BME280;2097;51.104;7.150;2023-03-22T08:37:49;98143.50;;;11.66;98.96
4167;BME280;2097;51.104;7.150;2023-03-22T08:40:18;98144.94;;;11.70;98.68
4167;BME280;2097;51.104;7.150;2023-03-22T08:42:45;98148.41;;;11.82;98.03
4167;BME280;2097;51.104;7.150;2023-03-22T08:45:12;98156.72;;;11.87;97.56
4167;BME280;2097;51.104;7.150;2023-03-22T08:47:39;98152.00;;;11.92;97.21
4167;BME280;2097;51.104;7.150;2023-03-22T08:50:09;98084.59;;;11.54;97.45
4167;BME280;2097;51.104;7.150;2023-03-22T08:52:36;98156.69;;;12.10;97.30
4167;BME280;2097;51.104;7.150;2023-03-22T08:55:04;98169.88;;;12.31;96.38
4167;BME280;2097;51.104;7.150;2023-03-22T08:57:32;98162.34;;;12.49;94.65
4167;BME280;2097;51.104;7.150;2023-03-22T08:59:59;98144.59;;;12.54;93.83
4167;BME280;2097;51.104;7.150;2023-03-22T09:02:26;98152.56;;;12.75;92.78
4167;BME280;2097;51.104;7.150;2023-03-22T09:04:53;98153.63;;;12.83;92.57
4167;BME280;2097;51.104;7.150;2023-03-22T09:07:21;98153.53;;;12.85;91.81
4167;BME280;2097;51.104;7.150;2023-03-22T09:09:49;98148.78;;;12.79;91.26
4167;BME280;2097;51.104;7.150;2023-03-22T09:12:15;98153.03;;;12.69;90.24
4167;BME280;2097;51.104;7.150;2023-03-22T09:14:42;98146.06;;;12.69;89.44
4167;BME280;2097;51.104;7.150;2023-03-22T09:17:14;98145.09;;;12.70;89.39
4167;BME280;2097;51.104;7.150;2023-03-22T09:19:43;98140.25;;;12.77;88.92
4167;BME280;2097;51.104;7.150;2023-03-22T09:22:10;98146.03;;;12.80;88.13
4167;BME280;2097;51.104;7.150;2023-03-22T09:24:38;98149.13;;;12.85;87.89
4167;BME280;2097;51.104;7.150;2023-03-22T09:27:05;98138.38;;;12.90;87.80
4167;BME280;2097;51.104;7.150;2023-03-22T09:29:32;98145.94;;;12.93;86.56
4167;BME280;2097;51.104;7.150;2023-03-22T09:31:59;98147.75;;;13.03;86.19
4167;BME280;2097;51.104;7.150;2023-03-22T09:34:26;98140.41;;;13.08;85.31
4167;BME280;2097;51.104;7.150;2023-03-22T09:36:53;98126.88;;;13.14;84.92
4167;BME280;2097;51.104;7.150;2023-03-22T09:39:19;98140.13;;;13.22;83.00
4167;BME280;2097;51.104;7.150;2023-03-22T09:41:50;98142.50;;;13.14;83.66
4167;BME280;2097;51.104;7.150;2023-03-22T09:44:21;98140.84;;;13.13;83.76
4167;BME280;2097;51.104;7.150;2023-03-22T09:46:54;98075.06;;;12.67;83.09
4167;BME280;2097;51.104;7.150;2023-03-22T09:49:27;98147.72;;;13.36;82.26
4167;BME280;2097;51.104;7.150;2023-03-22T09:51:55;98135.00;;;13.54;81.63
4167;BME280;2097;51.104;7.150;2023-03-22T09:54:31;98129.69;;;13.44;80.23
4167;BME280;2097;51.104;7.150;2023-03-22T09:57:04;98133.59;;;13.39;80.53
4167;BME280;2097;51.104;7.150;2023-03-22T09:59:38;98136.56;;;13.34;80.58
4167;BME280;2097;51.104;7.150;2023-03-22T10:02:21;98130.75;;;13.31;80.55
4167;BME280;2097;51.104;7.150;2023-03-22T10:04:58;98137.50;;;13.44;79.76
4167;BME280;2097;51.104;7.150;2023-03-22T10:07:31;98135.06;;;13.63;79.66
4167;BME280;2097;51.104;7.150;2023-03-22T10:10:10;98146.19;;;13.76;79.51
4167;BME280;2097;51.104;7.150;2023-03-22T10:12:48;98135.06;;;13.74;79.10
4167;BME280;2097;51.104;7.150;2023-03-22T10:15:31;98142.31;;;13.60;78.64
4167;BME280;2097;51.104;7.150;2023-03-22T10:18:00;98159.50;;;13.51;79.10
4167;BME280;2097;51.104;7.150;2023-03-22T10:20:32;98132.66;;;13.40;78.40
4167;BME280;2097;51.104;7.150;2023-03-22T10:23:05;98132.69;;;13.29;77.93
4167;BME280;2097;51.104;7.150;2023-03-22T10:25:36;98125.91;;;13.26;77.38
4167;BME280;2097;51.104;7.150;2023-03-22T10:28:14;98123.88;;;13.41;77.13
4167;BME280;2097;51.104;7.150;2023-03-22T10:30:41;98133.19;;;13.54;76.50
4167;BME280;2097;51.104;7.150;2023-03-22T10:33:13;98133.03;;;13.66;76.14
4167;BME280;2097;51.104;7.150;2023-03-22T10:35:44;98143.75;;;13.84;75.42
4167;BME280;2097;51.104;7.150;2023-03-22T10:38:21;98136.06;;;13.82;75.03
4167;BME280;2097;51.104;7.150;2023-03-22T10:40:50;98136.78;;;13.84;75.29
4167;BME280;2097;51.104;7.150;2023-03-22T10:43:24;98133.66;;;14.01;75.02
4167;BME280;2097;51.104;7.150;2023-03-22T10:45:52;98140.25;;;14.05;73.55
4167;BME280;2097;51.104;7.150;2023-03-22T10:48:25;98138.09;;;14.10;73.14
4167;BME280;2097;51.104;7.150;2023-03-22T10:50:54;98140.28;;;14.26;73.34
4167;BME280;2097;51.104;7.150;2023-03-22T10:53:27;98135.47;;;14.42;72.86
4167;BME280;2097;51.104;7.150;2023-03-22T10:55:55;98145.19;;;14.40;72.80
4167;BME280;2097;51.104;7.150;2023-03-22T10:58:28;98138.47;;;14.37;72.72
4167;BME280;2097;51.104;7.150;2023-03-22T11:00:57;98152.34;;;14.38;72.84
4167;BME280;2097;51.104;7.150;2023-03-22T11:03:28;98135.00;;;14.37;72.72
4167;BME280;2097;51.104;7.150;2023-03-22T11:06:05;98138.56;;;14.36;72.73
4167;BME280;2097;51.104;7.150;2023-03-22T11:08:40;98136.91;;;14.35;72.28
4167;BME280;2097;51.104;7.150;2023-03-22T11:11:14;98136.91;;;14.35;72.49
4167;BME280;2097;51.104;7.150;2023-03-22T11:13:49;98128.19;;;14.45;72.47
4167;BME280;2097;51.104;7.150;2023-03-22T11:16:17;98142.78;;;14.48;72.34
4167;BME280;2097;51.104;7.150;2023-03-22T11:18:45;98129.34;;;14.52;72.11
4167;BME280;2097;51.104;7.150;2023-03-22T11:21:14;98050.78;;;14.14;71.95
4167;BME280;2097;51.104;7.150;2023-03-22T11:23:48;98127.56;;;14.53;71.36
4167;BME280;2097;51.104;7.150;2023-03-22T11:26:25;98126.72;;;14.32;70.61
4167;BME280;2097;51.104;7.150;2023-03-22T11:28:59;98133.81;;;14.20;70.79
4167;BME280;2097;51.104;7.150;2023-03-22T11:31:47;98142.03;;;14.16;71.00
4167;BME280;2097;51.104;7.150;2023-03-22T11:34:16;98129.78;;;14.16;71.12
4167;BME280;2097;51.104;7.150;2023-03-22T11:36:45;98054.25;;;13.63;71.30
4167;BME280;2097;51.104;7.150;2023-03-22T11:39:17;98122.56;;;14.20;71.00
4167;BME280;2097;51.104;7.150;2023-03-22T11:41:45;98132.16;;;14.19;71.03
4167;BME280;2097;51.104;7.150;2023-03-22T11:44:16;98123.75;;;14.16;70.76
4167;BME280;2097;51.104;7.150;2023-03-22T11:46:54;98120.91;;;14.08;70.75
4167;BME280;2097;51.104;7.150;2023-03-22T11:49:24;98084.78;;;13.72;70.32
4167;BME280;2097;51.104;7.150;2023-03-22T11:51:53;98132.91;;;13.79;70.56
4167;BME280;2097;51.104;7.150;2023-03-22T11:54:27;98126.75;;;13.69;70.65
4167;BME280;2097;51.104;7.150;2023-03-22T11:56:57;98134.13;;;13.64;70.50
4167;BME280;2097;51.104;7.150;2023-03-22T11:59:28;98122.78;;;13.54;70.44
4167;BME280;2097;51.104;7.150;2023-03-22T12:01:59;98115.56;;;13.47;70.39
4167;BME280;2097;51.104;7.150;2023-03-22T12:04:33;98136.34;;;13.37;70.52
4167;BME280;2097;51.104;7.150;2023-03-22T12:07:05;98125.91;;;13.26;70.64
4167;BME280;2097;51.104;7.150;2023-03-22T12:09:38;97977.09;;;12.23;70.53
4167;BME280;2097;51.104;7.150;2023-03-22T12:12:12;98120.75;;;13.04;71.14
4167;BME280;2097;51.104;7.150;2023-03-22T12:14:47;98109.00;;;12.99;71.34
4167;BME280;2097;51.104;7.150;2023-03-22T12:17:22;98111.53;;;13.00;70.79
4167;BME280;2097;51.104;7.150;2023-03-22T12:19:57;98107.03;;;13.02;70.85
4167;BME280;2097;51.104;7.150;2023-03-22T12:22:29;98112.69;;;13.07;70.83
4167;BME280;2097;51.104;7.150;2023-03-22T12:24:57;98111.03;;;13.06;70.70
4167;BME280;2097;51.104;7.150;2023-03-22T12:27:26;98116.25;;;13.06;70.71
4167;BME280;2097;51.104;7.150;2023-03-22T12:29:58;98097.06;;;13.07;70.76
4167;BME280;2097;51.104;7.150;2023-03-22T12:32:29;98107.94;;;13.12;69.92
4167;BME280;2097;51.104;7.150;2023-03-22T12:34:58;98097.31;;;13.04;70.40
4167;BME280;2097;51.104;7.150;2023-03-22T12:37:28;98104.41;;;13.02;70.45
4167;BME280;2097;51.104;7.150;2023-03-22T12:39:59;98095.66;;;13.03;70.52
4167;BME280;2097;51.104;7.150;2023-03-22T12:42:34;98106.53;;;13.08;70.46
4167;BME280;2097;51.104;7.150;2023-03-22T12:45:05;98091.72;;;12.98;70.33
4167;BME280;2097;51.104;7.150;2023-03-22T12:47:39;98096.00;;;12.88;70.53
4167;BME280;2097;51.104;7.150;2023-03-22T12:50:12;98095.63;;;12.81;70.66
4167;BME280;2097;51.104;7.150;2023-03-22T12:52:43;98095.84;;;12.78;70.61
4167;BME280;2097;51.104;7.150;2023-03-22T12:55:20;98104.88;;;12.74;71.06
4167;BME280;2097;51.104;7.150;2023-03-22T12:57:47;98104.50;;;12.68;71.19
4167;BME280;2097;51.104;7.150;2023-03-22T13:00:21;98084.25;;;12.49;71.48
4167;BME280;2097;51.104;7.150;2023-03-22T13:02:57;98102.50;;;12.60;71.36
4167;BME280;2097;51.104;7.150;2023-03-22T13:05:27;98104.97;;;12.62;71.55
4167;BME280;2097;51.104;7.150;2023-03-22T13:07:55;98103.47;;;12.70;71.49
4167;BME280;2097;51.104;7.150;2023-03-22T13:10:57;98111.63;;;12.77;71.77
4167;BME280;2097;51.104;7.150;2023-03-22T13:13:48;98105.34;;;12.68;71.93
4167;BME280;2097;51.104;7.150;2023-03-22T13:16:43;98114.34;;;12.64;72.31
4167;BME280;2097;51.104;7.150;2023-03-22T13:19:32;98112.28;;;12.57;73.02
4167;BME280;2097;51.104;7.150;2023-03-22T13:22:18;98107.19;;;12.45;73.95
4167;BME280;2097;51.104;7.150;2023-03-22T13:25:00;98113.22;;;12.34;74.94
4167;BME280;2097;51.104;7.150;2023-03-22T13:27:35;98117.59;;;12.23;75.52
4167;BME280;2097;51.104;7.150;2023-03-22T13:30:05;98114.72;;;12.15;76.04
4167;BME280;2097;51.104;7.150;2023-03-22T13:32:46;98111.63;;;12.10;76.37
4167;BME280;2097;51.104;7.150;2023-03-22T13:35:20;98069.72;;;11.80;77.07
4167;BME280;2097;51.104;7.150;2023-03-22T13:37:48;98106.28;;;12.00;77.18
4167;BME280;2097;51.104;7.150;2023-03-22T13:40:26;98056.78;;;11.67;77.72